Athol, ID

10:49 PM PST on February 24, 2017 (GMT -0800)
North Idaho Prairie | | Change Station

Elev 2477 ft 47.94 °N, 116.74 °W | Updated 2 seconds ago

Mostly Cloudy
Mostly Cloudy
21.1 °F
Feels Like 21 °F
N
0.0
Wind Variable Wind from South
Gusts 0.0 mph

Today
High -- | Low -- °F
--% Chance of Precip.
Yesterday
High -- | Low -- °F
Precip. -- in
Pressure 30.31 in
Visibility 10.0 miles
Clouds Scattered Clouds 4900 ft
Windchill 21 °F
Dew Point 18 °F
Humidity 95%
Rainfall 0.00 in
Snow Depth Not available.
6:36 AM 5:24 PM
Waning Crescent, 2% visible
METAR KCOE 250556Z AUTO 08003KT 10SM SCT049 M04/M06 A3017 RMK AO2 SLP264 T10441056 10000 21067 51005 FZRANO
Pressure 30.31 in
Visibility 10.0 miles
Clouds Scattered Clouds 4900 ft
Windchill 21 °F
Dew Point 18 °F
Humidity 95%
Rainfall 0.00 in
Snow Depth Not available.
6:36 AM 5:24 PM
Waning Crescent, 2% visible
METAR KCOE 250556Z AUTO 08003KT 10SM SCT049 M04/M06 A3017 RMK AO2 SLP264 T10441056 10000 21067 51005 FZRANO

Get Your Daily Forecast Email!

Thanks for signing up!

Be on the lookout for a verification email in your inbox.

You'll start receiving the daily forecast at 8 AM.

×

10-Day Weather Forecast

Almanac

Astronomy

Feb. 24, 2017 Rise Set
Actual Time
Civil Twilight
Nautical Twilight
Astronomical Twilight
Moon
Length of Visible Light
Length of Day
Tomorrow will be .
, % of the Moon is Illuminated

Today's Extremes

State Highs State Lows

Community

WunderPhotos

Upload Photos

1,962,540 photos uploaded!

WunderBlog® & News

Nearby

Air Quality

  Air Quality AQ Index Pollutant
Not available.

Snow Depth

Station Depth Elevation

Earthquake Activity

City Distance Mag. Time & Date
Minimum magnitude displayed is 2.5.

Coastal Water Temperatures

Place Temperature

Stations

Nearby Weather Stations

Station Location Temp. Windchill Dew Point Humidity Wind Precip. Elev Updated Type
                   

Watches & Warnings

There are currently no watches in effect.